sensor_id;sensor_type;location;lat;lon;timestamp;P1;durP1;ratioP1;P2;durP2;ratioP2
51732;SDS011;39139;53.144;6.244;2023-08-12T00:01:39;12.30;;;6.13;;
51732;SDS011;39139;53.144;6.244;2023-08-12T00:04:05;7.43;;;5.95;;
51732;SDS011;39139;53.144;6.244;2023-08-12T00:06:31;9.18;;;5.45;;
51732;SDS011;39139;53.144;6.244;2023-08-12T00:08:57;11.90;;;4.70;;
51732;SDS011;39139;53.144;6.244;2023-08-12T00:11:22;8.65;;;5.53;;
51732;SDS011;39139;53.144;6.244;2023-08-12T00:13:48;12.23;;;6.18;;
51732;SDS011;39139;53.144;6.244;2023-08-12T00:16:14;12.10;;;5.25;;
51732;SDS011;39139;53.144;6.244;2023-08-12T00:18:39;10.05;;;5.60;;
51732;SDS011;39139;53.144;6.244;2023-08-12T00:21:11;8.20;;;5.75;;
51732;SDS011;39139;53.144;6.244;2023-08-12T00:23:37;11.23;;;5.97;;
51732;SDS011;39139;53.144;6.244;2023-08-12T00:26:05;9.97;;;4.97;;
51732;SDS011;39139;53.144;6.244;2023-08-12T00:28:32;11.77;;;5.10;;
51732;SDS011;39139;53.144;6.244;2023-08-12T00:30:58;13.00;;;6.15;;
51732;SDS011;39139;53.144;6.244;2023-08-12T00:33:23;9.32;;;5.38;;
51732;SDS011;39139;53.144;6.244;2023-08-12T00:35:49;9.45;;;5.18;;
51732;SDS011;39139;53.144;6.244;2023-08-12T00:38:15;10.68;;;5.38;;
51732;SDS011;39139;53.144;6.244;2023-08-12T00:40:41;7.22;;;5.10;;
51732;SDS011;39139;53.144;6.244;2023-08-12T00:43:06;8.07;;;4.80;;
51732;SDS011;39139;53.144;6.244;2023-08-12T00:45:34;7.78;;;4.50;;
51732;SDS011;39139;53.144;6.244;2023-08-12T00:48:00;8.38;;;5.20;;
51732;SDS011;39139;53.144;6.244;2023-08-12T00:50:27;9.02;;;4.78;;
51732;SDS011;39139;53.144;6.244;2023-08-12T00:52:54;10.88;;;4.00;;
51732;SDS011;39139;53.144;6.244;2023-08-12T00:55:20;6.68;;;4.55;;
51732;SDS011;39139;53.144;6.244;2023-08-12T00:57:46;5.95;;;4.35;;
51732;SDS011;39139;53.144;6.244;2023-08-12T01:00:12;5.88;;;4.72;;
51732;SDS011;39139;53.144;6.244;2023-08-12T01:02:39;5.90;;;4.65;;
51732;SDS011;39139;53.144;6.244;2023-08-12T01:05:10;6.43;;;4.50;;
51732;SDS011;39139;53.144;6.244;2023-08-12T01:07:36;13.38;;;4.97;;
51732;SDS011;39139;53.144;6.244;2023-08-12T01:10:02;11.25;;;5.28;;
51732;SDS011;39139;53.144;6.244;2023-08-12T01:12:35;6.97;;;4.68;;
51732;SDS011;39139;53.144;6.244;2023-08-12T01:17:31;6.15;;;5.20;;
51732;SDS011;39139;53.144;6.244;2023-08-12T01:19:58;7.38;;;5.35;;
51732;SDS011;39139;53.144;6.244;2023-08-12T01:22:25;5.32;;;4.65;;
51732;SDS011;39139;53.144;6.244;2023-08-12T01:24:54;7.18;;;4.20;;
51732;SDS011;39139;53.144;6.244;2023-08-12T01:27:20;8.57;;;4.38;;
51732;SDS011;39139;53.144;6.244;2023-08-12T01:29:46;7.70;;;4.57;;
51732;SDS011;39139;53.144;6.244;2023-08-12T01:32:19;6.57;;;5.40;;
51732;SDS011;39139;53.144;6.244;2023-08-12T01:34:50;5.72;;;4.55;;
51732;SDS011;39139;53.144;6.244;2023-08-12T01:37:28;7.65;;;4.93;;
51732;SDS011;39139;53.144;6.244;2023-08-12T01:39:54;8.70;;;4.70;;
51732;SDS011;39139;53.144;6.244;2023-08-12T01:42:23;5.63;;;5.00;;
51732;SDS011;39139;53.144;6.244;2023-08-12T01:44:50;6.60;;;4.38;;
51732;SDS011;39139;53.144;6.244;2023-08-12T01:47:16;8.02;;;4.32;;
51732;SDS011;39139;53.144;6.244;2023-08-12T01:49:41;8.82;;;4.25;;
51732;SDS011;39139;53.144;6.244;2023-08-12T01:52:07;11.18;;;5.13;;
51732;SDS011;39139;53.144;6.244;2023-08-12T01:54:33;8.98;;;5.32;;
51732;SDS011;39139;53.144;6.244;2023-08-12T01:57:02;6.72;;;5.07;;
51732;SDS011;39139;53.144;6.244;2023-08-12T01:59:31;8.10;;;5.72;;
51732;SDS011;39139;53.144;6.244;2023-08-12T02:01:57;9.88;;;5.22;;
51732;SDS011;39139;53.144;6.244;2023-08-12T02:04:23;12.70;;;5.32;;
51732;SDS011;39139;53.144;6.244;2023-08-12T02:06:48;12.18;;;5.93;;
51732;SDS011;39139;53.144;6.244;2023-08-12T02:09:15;8.50;;;5.40;;
51732;SDS011;39139;53.144;6.244;2023-08-12T02:11:40;10.90;;;6.40;;
51732;SDS011;39139;53.144;6.244;2023-08-12T02:14:06;16.35;;;6.43;;
51732;SDS011;39139;53.144;6.244;2023-08-12T02:16:32;12.45;;;7.68;;
51732;SDS011;39139;53.144;6.244;2023-08-12T02:18:57;9.85;;;7.00;;
51732;SDS011;39139;53.144;6.244;2023-08-12T02:21:23;9.23;;;6.20;;
51732;SDS011;39139;53.144;6.244;2023-08-12T02:23:51;12.20;;;7.70;;
51732;SDS011;39139;53.144;6.244;2023-08-12T02:26:17;13.70;;;7.93;;
51732;SDS011;39139;53.144;6.244;2023-08-12T02:28:43;12.48;;;7.10;;
51732;SDS011;39139;53.144;6.244;2023-08-12T02:31:08;12.43;;;7.78;;
51732;SDS011;39139;53.144;6.244;2023-08-12T02:33:34;12.98;;;8.27;;
51732;SDS011;39139;53.144;6.244;2023-08-12T02:36:00;9.30;;;8.27;;
51732;SDS011;39139;53.144;6.244;2023-08-12T02:38:25;11.05;;;8.25;;
51732;SDS011;39139;53.144;6.244;2023-08-12T02:40:51;14.70;;;8.23;;
51732;SDS011;39139;53.144;6.244;2023-08-12T02:43:17;12.98;;;8.82;;
51732;SDS011;39139;53.144;6.244;2023-08-12T02:45:43;15.35;;;9.00;;
51732;SDS011;39139;53.144;6.244;2023-08-12T02:48:12;15.30;;;9.50;;
51732;SDS011;39139;53.144;6.244;2023-08-12T02:50:38;15.45;;;8.40;;
51732;SDS011;39139;53.144;6.244;2023-08-12T02:53:04;16.90;;;9.25;;
51732;SDS011;39139;53.144;6.244;2023-08-12T02:55:30;9.63;;;8.30;;
51732;SDS011;39139;53.144;6.244;2023-08-12T02:58:00;14.82;;;8.68;;
51732;SDS011;39139;53.144;6.244;2023-08-12T03:00:26;12.40;;;9.20;;
51732;SDS011;39139;53.144;6.244;2023-08-12T03:02:53;13.18;;;9.85;;
51732;SDS011;39139;53.144;6.244;2023-08-12T03:05:19;15.07;;;9.55;;
51732;SDS011;39139;53.144;6.244;2023-08-12T03:07:45;16.65;;;9.07;;
51732;SDS011;39139;53.144;6.244;2023-08-12T03:10:11;16.10;;;9.20;;
51732;SDS011;39139;53.144;6.244;2023-08-12T03:12:37;11.98;;;8.63;;
51732;SDS011;39139;53.144;6.244;2023-08-12T03:15:03;13.38;;;9.25;;
51732;SDS011;39139;53.144;6.244;2023-08-12T03:17:31;12.68;;;9.38;;
51732;SDS011;39139;53.144;6.244;2023-08-12T03:19:57;14.40;;;10.18;;
51732;SDS011;39139;53.144;6.244;2023-08-12T03:22:29;14.35;;;9.52;;
51732;SDS011;39139;53.144;6.244;2023-08-12T03:24:54;12.40;;;9.90;;
51732;SDS011;39139;53.144;6.244;2023-08-12T03:27:20;19.20;;;9.95;;
51732;SDS011;39139;53.144;6.244;2023-08-12T03:29:46;18.45;;;9.48;;
51732;SDS011;39139;53.144;6.244;2023-08-12T03:32:11;13.85;;;10.40;;
51732;SDS011;39139;53.144;6.244;2023-08-12T03:34:37;13.48;;;9.57;;
51732;SDS011;39139;53.144;6.244;2023-08-12T03:37:03;17.50;;;11.32;;
51732;SDS011;39139;53.144;6.244;2023-08-12T03:39:29;16.60;;;10.73;;
51732;SDS011;39139;53.144;6.244;2023-08-12T03:41:55;13.57;;;9.90;;
51732;SDS011;39139;53.144;6.244;2023-08-12T03:44:20;16.52;;;11.32;;
51732;SDS011;39139;53.144;6.244;2023-08-12T03:46:46;18.30;;;11.18;;
51732;SDS011;39139;53.144;6.244;2023-08-12T03:49:11;13.10;;;10.50;;
51732;SDS011;39139;53.144;6.244;2023-08-12T03:51:37;15.15;;;11.25;;
51732;SDS011;39139;53.144;6.244;2023-08-12T03:54:03;18.77;;;11.52;;
51732;SDS011;39139;53.144;6.244;2023-08-12T03:56:29;12.85;;;11.00;;
51732;SDS011;39139;53.144;6.244;2023-08-12T03:58:54;14.30;;;10.50;;
51732;SDS011;39139;53.144;6.244;2023-08-12T04:01:20;15.50;;;10.93;;
51732;SDS011;39139;53.144;6.244;2023-08-12T04:03:46;19.58;;;10.68;;
51732;SDS011;39139;53.144;6.244;2023-08-12T04:06:12;16.40;;;12.20;;
51732;SDS011;39139;53.144;6.244;2023-08-12T04:08:38;22.70;;;11.77;;
51732;SDS011;39139;53.144;6.244;2023-08-12T04:11:04;22.45;;;12.40;;
51732;SDS011;39139;53.144;6.244;2023-08-12T04:13:30;16.55;;;11.40;;
51732;SDS011;39139;53.144;6.244;2023-08-12T04:15:55;16.00;;;12.32;;
51732;SDS011;39139;53.144;6.244;2023-08-12T04:18:21;18.13;;;12.25;;
51732;SDS011;39139;53.144;6.244;2023-08-12T04:20:51;14.27;;;11.25;;
51732;SDS011;39139;53.144;6.244;2023-08-12T04:23:17;15.18;;;12.55;;
51732;SDS011;39139;53.144;6.244;2023-08-12T04:25:44;17.98;;;11.82;;
51732;SDS011;39139;53.144;6.244;2023-08-12T04:28:12;17.43;;;12.20;;
51732;SDS011;39139;53.144;6.244;2023-08-12T04:30:42;15.75;;;12.07;;
51732;SDS011;39139;53.144;6.244;2023-08-12T04:33:08;15.23;;;11.60;;
51732;SDS011;39139;53.144;6.244;2023-08-12T04:35:34;19.83;;;13.77;;
51732;SDS011;39139;53.144;6.244;2023-08-12T04:38:00;18.10;;;11.85;;
51732;SDS011;39139;53.144;6.244;2023-08-12T04:40:26;13.32;;;11.32;;
51732;SDS011;39139;53.144;6.244;2023-08-12T04:42:52;15.25;;;12.18;;
51732;SDS011;39139;53.144;6.244;2023-08-12T04:45:17;15.20;;;11.68;;
51732;SDS011;39139;53.144;6.244;2023-08-12T04:47:43;16.85;;;11.30;;
51732;SDS011;39139;53.144;6.244;2023-08-12T04:50:09;15.50;;;10.93;;
51732;SDS011;39139;53.144;6.244;2023-08-12T04:52:35;14.85;;;12.23;;
51732;SDS011;39139;53.144;6.244;2023-08-12T04:55:04;13.10;;;10.75;;
51732;SDS011;39139;53.144;6.244;2023-08-12T04:57:30;18.63;;;11.65;;
51732;SDS011;39139;53.144;6.244;2023-08-12T04:59:56;14.23;;;11.05;;
51732;SDS011;39139;53.144;6.244;2023-08-12T05:02:22;15.13;;;10.43;;
51732;SDS011;39139;53.144;6.244;2023-08-12T05:04:48;14.88;;;11.07;;
51732;SDS011;39139;53.144;6.244;2023-08-12T05:07:14;17.63;;;10.68;;
51732;SDS011;39139;53.144;6.244;2023-08-12T05:09:40;15.75;;;11.50;;
51732;SDS011;39139;53.144;6.244;2023-08-12T05:12:09;16.05;;;11.90;;
51732;SDS011;39139;53.144;6.244;2023-08-12T05:14:35;20.77;;;11.32;;
51732;SDS011;39139;53.144;6.244;2023-08-12T05:17:01;13.65;;;10.10;;
51732;SDS011;39139;53.144;6.244;2023-08-12T05:19:27;15.68;;;12.02;;
51732;SDS011;39139;53.144;6.244;2023-08-12T05:21:53;15.65;;;11.15;;
51732;SDS011;39139;53.144;6.244;2023-08-12T05:24:19;16.83;;;11.95;;
51732;SDS011;39139;53.144;6.244;2023-08-12T05:26:44;14.32;;;10.43;;
51732;SDS011;39139;53.144;6.244;2023-08-12T05:29:10;22.73;;;11.05;;
51732;SDS011;39139;53.144;6.244;2023-08-12T05:31:36;15.25;;;11.30;;
51732;SDS011;39139;53.144;6.244;2023-08-12T05:34:02;13.05;;;10.02;;
51732;SDS011;39139;53.144;6.244;2023-08-12T05:36:27;17.50;;;12.15;;
51732;SDS011;39139;53.144;6.244;2023-08-12T05:38:54;16.27;;;11.85;;
51732;SDS011;39139;53.144;6.244;2023-08-12T05:41:19;16.10;;;10.85;;
51732;SDS011;39139;53.144;6.244;2023-08-12T05:43:45;17.50;;;12.07;;
51732;SDS011;39139;53.144;6.244;2023-08-12T05:46:12;15.38;;;11.20;;
51732;SDS011;39139;53.144;6.244;2023-08-12T05:48:37;15.20;;;12.02;;
51732;SDS011;39139;53.144;6.244;2023-08-12T05:51:03;15.75;;;10.85;;
51732;SDS011;39139;53.144;6.244;2023-08-12T05:53:29;15.80;;;11.85;;
51732;SDS011;39139;53.144;6.244;2023-08-12T05:55:54;15.93;;;11.30;;
51732;SDS011;39139;53.144;6.244;2023-08-12T05:58:20;16.92;;;11.10;;
51732;SDS011;39139;53.144;6.244;2023-08-12T06:00:45;18.23;;;11.95;;
51732;SDS011;39139;53.144;6.244;2023-08-12T06:03:11;16.27;;;12.13;;
51732;SDS011;39139;53.144;6.244;2023-08-12T06:05:38;21.55;;;12.38;;
51732;SDS011;39139;53.144;6.244;2023-08-12T06:08:05;14.15;;;10.35;;
51732;SDS011;39139;53.144;6.244;2023-08-12T06:10:30;19.40;;;13.18;;
51732;SDS011;39139;53.144;6.244;2023-08-12T06:12:56;18.63;;;12.65;;
51732;SDS011;39139;53.144;6.244;2023-08-12T06:15:22;19.25;;;12.73;;
51732;SDS011;39139;53.144;6.244;2023-08-12T06:17:47;18.70;;;12.35;;
51732;SDS011;39139;53.144;6.244;2023-08-12T06:20:13;20.00;;;14.02;;
51732;SDS011;39139;53.144;6.244;2023-08-12T06:22:39;19.52;;;12.93;;
51732;SDS011;39139;53.144;6.244;2023-08-12T06:25:05;21.90;;;14.48;;
51732;SDS011;39139;53.144;6.244;2023-08-12T06:27:31;19.48;;;12.63;;
51732;SDS011;39139;53.144;6.244;2023-08-12T06:29:57;22.83;;;13.85;;
51732;SDS011;39139;53.144;6.244;2023-08-12T06:32:22;17.92;;;14.90;;
51732;SDS011;39139;53.144;6.244;2023-08-12T06:34:48;20.67;;;15.45;;
51732;SDS011;39139;53.144;6.244;2023-08-12T06:37:14;26.75;;;15.55;;
51732;SDS011;39139;53.144;6.244;2023-08-12T06:39:39;24.88;;;16.15;;
51732;SDS011;39139;53.144;6.244;2023-08-12T06:42:05;23.30;;;17.63;;
51732;SDS011;39139;53.144;6.244;2023-08-12T06:44:31;24.77;;;15.30;;
51732;SDS011;39139;53.144;6.244;2023-08-12T06:46:56;23.70;;;16.50;;
51732;SDS011;39139;53.144;6.244;2023-08-12T06:49:22;24.23;;;17.52;;
51732;SDS011;39139;53.144;6.244;2023-08-12T06:51:48;20.65;;;15.20;;
51732;SDS011;39139;53.144;6.244;2023-08-12T06:54:13;21.33;;;16.08;;
51732;SDS011;39139;53.144;6.244;2023-08-12T06:56:39;22.70;;;17.05;;
51732;SDS011;39139;53.144;6.244;2023-08-12T06:59:05;23.92;;;17.27;;
51732;SDS011;39139;53.144;6.244;2023-08-12T07:01:30;28.20;;;17.13;;
51732;SDS011;39139;53.144;6.244;2023-08-12T07:03:56;25.98;;;18.35;;
51732;SDS011;39139;53.144;6.244;2023-08-12T07:06:22;22.40;;;16.55;;
51732;SDS011;39139;53.144;6.244;2023-08-12T07:08:47;29.55;;;19.05;;
51732;SDS011;39139;53.144;6.244;2023-08-12T07:11:13;27.30;;;18.50;;
51732;SDS011;39139;53.144;6.244;2023-08-12T07:13:39;27.15;;;18.55;;
51732;SDS011;39139;53.144;6.244;2023-08-12T07:16:04;31.92;;;19.00;;
51732;SDS011;39139;53.144;6.244;2023-08-12T07:18:30;30.95;;;19.63;;
51732;SDS011;39139;53.144;6.244;2023-08-12T07:20:56;39.10;;;20.95;;
51732;SDS011;39139;53.144;6.244;2023-08-12T07:23:23;25.30;;;19.45;;
51732;SDS011;39139;53.144;6.244;2023-08-12T07:25:49;27.73;;;19.92;;
51732;SDS011;39139;53.144;6.244;2023-08-12T07:28:15;25.42;;;18.50;;
51732;SDS011;39139;53.144;6.244;2023-08-12T07:30:40;27.42;;;19.30;;
51732;SDS011;39139;53.144;6.244;2023-08-12T07:33:06;29.90;;;20.33;;
51732;SDS011;39139;53.144;6.244;2023-08-12T07:35:32;26.10;;;20.33;;
51732;SDS011;39139;53.144;6.244;2023-08-12T07:37:58;27.65;;;20.83;;
51732;SDS011;39139;53.144;6.244;2023-08-12T07:40:24;30.05;;;19.45;;
51732;SDS011;39139;53.144;6.244;2023-08-12T07:42:50;25.88;;;20.00;;
51732;SDS011;39139;53.144;6.244;2023-08-12T07:45:15;27.40;;;20.38;;
51732;SDS011;39139;53.144;6.244;2023-08-12T07:47:41;25.98;;;19.48;;
51732;SDS011;39139;53.144;6.244;2023-08-12T07:50:07;34.15;;;22.08;;
51732;SDS011;39139;53.144;6.244;2023-08-12T07:52:32;30.35;;;20.80;;
51732;SDS011;39139;53.144;6.244;2023-08-12T07:54:58;30.80;;;20.85;;
51732;SDS011;39139;53.144;6.244;2023-08-12T07:57:24;31.85;;;21.00;;
51732;SDS011;39139;53.144;6.244;2023-08-12T07:59:50;31.83;;;20.30;;
51732;SDS011;39139;53.144;6.244;2023-08-12T08:02:16;23.73;;;19.17;;
51732;SDS011;39139;53.144;6.244;2023-08-12T08:04:42;26.15;;;19.90;;
51732;SDS011;39139;53.144;6.244;2023-08-12T08:07:08;25.45;;;18.30;;
51732;SDS011;39139;53.144;6.244;2023-08-12T08:09:34;31.85;;;19.45;;
51732;SDS011;39139;53.144;6.244;2023-08-12T08:12:00;25.15;;;17.90;;
51732;SDS011;39139;53.144;6.244;2023-08-12T08:14:26;25.27;;;17.90;;
51732;SDS011;39139;53.144;6.244;2023-08-12T08:16:52;28.35;;;19.50;;
51732;SDS011;39139;53.144;6.244;2023-08-12T08:19:18;22.55;;;18.85;;
51732;SDS011;39139;53.144;6.244;2023-08-12T08:21:44;29.08;;;20.10;;
51732;SDS011;39139;53.144;6.244;2023-08-12T08:24:10;27.38;;;21.15;;
51732;SDS011;39139;53.144;6.244;2023-08-12T08:26:38;25.05;;;19.70;;
51732;SDS011;39139;53.144;6.244;2023-08-12T08:29:05;26.73;;;21.08;;
51732;SDS011;39139;53.144;6.244;2023-08-12T08:31:31;28.20;;;21.25;;
51732;SDS011;39139;53.144;6.244;2023-08-12T08:33:57;28.92;;;20.75;;
51732;SDS011;39139;53.144;6.244;2023-08-12T08:36:23;30.58;;;21.08;;
51732;SDS011;39139;53.144;6.244;2023-08-12T08:38:48;30.02;;;20.63;;
51732;SDS011;39139;53.144;6.244;2023-08-12T08:41:14;29.88;;;22.23;;
51732;SDS011;39139;53.144;6.244;2023-08-12T08:43:42;27.85;;;20.42;;
51732;SDS011;39139;53.144;6.244;2023-08-12T08:46:13;33.75;;;21.88;;
51732;SDS011;39139;53.144;6.244;2023-08-12T08:48:41;35.38;;;24.40;;
51732;SDS011;39139;53.144;6.244;2023-08-12T08:51:08;33.58;;;23.20;;
51732;SDS011;39139;53.144;6.244;2023-08-12T08:53:37;39.63;;;23.17;;
51732;SDS011;39139;53.144;6.244;2023-08-12T08:56:06;36.65;;;24.02;;
51732;SDS011;39139;53.144;6.244;2023-08-12T08:58:33;34.25;;;25.75;;
51732;SDS011;39139;53.144;6.244;2023-08-12T09:00:59;41.25;;;26.85;;
51732;SDS011;39139;53.144;6.244;2023-08-12T09:03:26;34.20;;;23.55;;
51732;SDS011;39139;53.144;6.244;2023-08-12T09:05:52;37.50;;;26.10;;
51732;SDS011;39139;53.144;6.244;2023-08-12T09:08:20;39.27;;;27.13;;
51732;SDS011;39139;53.144;6.244;2023-08-12T09:10:48;43.97;;;27.02;;
51732;SDS011;39139;53.144;6.244;2023-08-12T09:13:14;35.78;;;25.25;;
51732;SDS011;39139;53.144;6.244;2023-08-12T09:15:41;41.25;;;28.48;;
51732;SDS011;39139;53.144;6.244;2023-08-12T09:18:06;34.38;;;25.52;;
51732;SDS011;39139;53.144;6.244;2023-08-12T09:20:35;40.47;;;27.10;;
51732;SDS011;39139;53.144;6.244;2023-08-12T09:25:27;38.45;;;27.25;;
51732;SDS011;39139;53.144;6.244;2023-08-12T09:28:00;41.08;;;28.77;;
51732;SDS011;39139;53.144;6.244;2023-08-12T09:30:29;41.42;;;27.75;;
51732;SDS011;39139;53.144;6.244;2023-08-12T09:32:59;38.78;;;27.77;;
51732;SDS011;39139;53.144;6.244;2023-08-12T09:35:32;34.47;;;26.83;;
51732;SDS011;39139;53.144;6.244;2023-08-12T09:38:06;40.17;;;28.60;;
51732;SDS011;39139;53.144;6.244;2023-08-12T09:40:34;38.90;;;29.05;;
51732;SDS011;39139;53.144;6.244;2023-08-12T09:43:01;37.30;;;27.02;;
51732;SDS011;39139;53.144;6.244;2023-08-12T09:45:27;35.35;;;27.25;;
51732;SDS011;39139;53.144;6.244;2023-08-12T09:47:56;32.90;;;25.35;;
51732;SDS011;39139;53.144;6.244;2023-08-12T09:52:51;30.90;;;24.00;;
51732;SDS011;39139;53.144;6.244;2023-08-12T09:55:19;31.55;;;24.35;;
51732;SDS011;39139;53.144;6.244;2023-08-12T09:57:47;29.23;;;23.50;;
51732;SDS011;39139;53.144;6.244;2023-08-12T10:00:15;27.90;;;23.70;;
51732;SDS011;39139;53.144;6.244;2023-08-12T10:02:43;26.35;;;22.15;;
51732;SDS011;39139;53.144;6.244;2023-08-12T10:05:11;25.95;;;22.38;;
51732;SDS011;39139;53.144;6.244;2023-08-12T10:07:40;26.55;;;19.77;;
51732;SDS011;39139;53.144;6.244;2023-08-12T10:10:06;24.20;;;19.55;;
51732;SDS011;39139;53.144;6.244;2023-08-12T10:12:33;24.00;;;19.77;;
51732;SDS011;39139;53.144;6.244;2023-08-12T10:14:59;20.50;;;16.08;;
51732;SDS011;39139;53.144;6.244;2023-08-12T10:17:25;19.60;;;16.40;;
51732;SDS011;39139;53.144;6.244;2023-08-12T10:19:55;17.55;;;14.57;;
51732;SDS011;39139;53.144;6.244;2023-08-12T10:22:25;14.13;;;12.77;;
51732;SDS011;39139;53.144;6.244;2023-08-12T10:24:51;16.10;;;13.40;;
51732;SDS011;39139;53.144;6.244;2023-08-12T10:27:18;17.58;;;13.45;;
51732;SDS011;39139;53.144;6.244;2023-08-12T10:29:44;14.50;;;11.50;;
51732;SDS011;39139;53.144;6.244;2023-08-12T10:32:11;15.18;;;12.77;;
51732;SDS011;39139;53.144;6.244;2023-08-12T10:34:38;15.60;;;13.05;;
51732;SDS011;39139;53.144;6.244;2023-08-12T10:37:04;13.25;;;11.52;;
51732;SDS011;39139;53.144;6.244;2023-08-12T10:39:33;11.05;;;9.15;;
51732;SDS011;39139;53.144;6.244;2023-08-12T10:41:59;10.10;;;9.07;;
51732;SDS011;39139;53.144;6.244;2023-08-12T10:44:49;9.27;;;8.40;;
51732;SDS011;39139;53.144;6.244;2023-08-12T10:47:16;10.68;;;8.60;;
51732;SDS011;39139;53.144;6.244;2023-08-12T10:49:48;9.02;;;8.15;;
51732;SDS011;39139;53.144;6.244;2023-08-12T10:52:30;12.07;;;9.32;;
51732;SDS011;39139;53.144;6.244;2023-08-12T10:55:15;9.40;;;8.50;;
51732;SDS011;39139;53.144;6.244;2023-08-12T10:57:54;10.35;;;9.10;;
51732;SDS011;39139;53.144;6.244;2023-08-12T11:00:24;9.68;;;8.55;;
51732;SDS011;39139;53.144;6.244;2023-08-12T11:02:54;9.23;;;8.43;;
51732;SDS011;39139;53.144;6.244;2023-08-12T11:05:21;5.78;;;3.47;;
51732;SDS011;39139;53.144;6.244;2023-08-12T11:07:49;3.72;;;2.85;;
51732;SDS011;39139;53.144;6.244;2023-08-12T11:10:26;5.20;;;3.08;;
51732;SDS011;39139;53.144;6.244;2023-08-12T11:15:33;7.00;;;3.25;;
51732;SDS011;39139;53.144;6.244;2023-08-12T11:18:17;5.40;;;2.33;;
51732;SDS011;39139;53.144;6.244;2023-08-12T11:20:45;3.72;;;2.45;;
51732;SDS011;39139;53.144;6.244;2023-08-12T11:23:12;5.28;;;2.60;;
51732;SDS011;39139;53.144;6.244;2023-08-12T11:25:38;12.18;;;3.25;;
51732;SDS011;39139;53.144;6.244;2023-08-12T11:28:05;5.45;;;2.58;;
51732;SDS011;39139;53.144;6.244;2023-08-12T11:30:32;9.18;;;2.28;;
51732;SDS011;39139;53.144;6.244;2023-08-12T11:32:58;6.55;;;2.40;;
51732;SDS011;39139;53.144;6.244;2023-08-12T11:35:25;6.45;;;2.22;;
51732;SDS011;39139;53.144;6.244;2023-08-12T11:37:51;7.40;;;2.70;;
51732;SDS011;39139;53.144;6.244;2023-08-12T11:40:19;6.22;;;2.65;;
51732;SDS011;39139;53.144;6.244;2023-08-12T11:42:45;6.35;;;2.63;;
51732;SDS011;39139;53.144;6.244;2023-08-12T11:45:13;8.50;;;3.45;;
51732;SDS011;39139;53.144;6.244;2023-08-12T11:47:41;10.73;;;2.83;;
51732;SDS011;39139;53.144;6.244;2023-08-12T11:50:07;7.18;;;2.97;;
51732;SDS011;39139;53.144;6.244;2023-08-12T11:52:35;7.32;;;2.65;;
51732;SDS011;39139;53.144;6.244;2023-08-12T11:55:01;7.70;;;3.28;;
51732;SDS011;39139;53.144;6.244;2023-08-12T11:57:27;7.93;;;2.67;;
51732;SDS011;39139;53.144;6.244;2023-08-12T12:00:03;6.43;;;2.65;;
51732;SDS011;39139;53.144;6.244;2023-08-12T12:02:38;10.02;;;2.60;;
51732;SDS011;39139;53.144;6.244;2023-08-12T12:05:11;6.85;;;2.53;;
51732;SDS011;39139;53.144;6.244;2023-08-12T12:07:38;8.20;;;2.58;;
51732;SDS011;39139;53.144;6.244;2023-08-12T12:10:04;7.57;;;2.97;;
51732;SDS011;39139;53.144;6.244;2023-08-12T12:12:32;5.80;;;2.20;;
51732;SDS011;39139;53.144;6.244;2023-08-12T12:15:00;5.50;;;2.75;;
51732;SDS011;39139;53.144;6.244;2023-08-12T12:17:27;8.80;;;2.67;;
51732;SDS011;39139;53.144;6.244;2023-08-12T12:19:54;7.13;;;1.90;;
51732;SDS011;39139;53.144;6.244;2023-08-12T12:22:25;4.60;;;2.40;;
51732;SDS011;39139;53.144;6.244;2023-08-12T12:24:53;9.23;;;2.70;;
51732;SDS011;39139;53.144;6.244;2023-08-12T12:27:18;10.35;;;2.45;;
51732;SDS011;39139;53.144;6.244;2023-08-12T12:29:44;9.88;;;3.55;;
51732;SDS011;39139;53.144;6.244;2023-08-12T12:32:10;11.35;;;3.38;;
51732;SDS011;39139;53.144;6.244;2023-08-12T12:34:35;7.85;;;2.88;;
51732;SDS011;39139;53.144;6.244;2023-08-12T12:37:01;6.63;;;3.20;;
51732;SDS011;39139;53.144;6.244;2023-08-12T12:39:27;8.00;;;3.70;;
51732;SDS011;39139;53.144;6.244;2023-08-12T12:41:52;9.00;;;3.35;;
51732;SDS011;39139;53.144;6.244;2023-08-12T12:44:18;10.25;;;4.03;;
51732;SDS011;39139;53.144;6.244;2023-08-12T12:46:44;12.90;;;4.82;;
51732;SDS011;39139;53.144;6.244;2023-08-12T12:49:10;10.35;;;4.45;;
51732;SDS011;39139;53.144;6.244;2023-08-12T12:51:35;10.95;;;3.90;;
51732;SDS011;39139;53.144;6.244;2023-08-12T12:54:01;18.02;;;4.82;;
51732;SDS011;39139;53.144;6.244;2023-08-12T12:56:27;7.43;;;3.28;;
51732;SDS011;39139;53.144;6.244;2023-08-12T12:58:53;8.52;;;3.50;;
51732;SDS011;39139;53.144;6.244;2023-08-12T13:01:18;10.32;;;4.07;;
51732;SDS011;39139;53.144;6.244;2023-08-12T13:03:44;7.50;;;3.95;;
51732;SDS011;39139;53.144;6.244;2023-08-12T13:06:10;8.15;;;3.97;;
51732;SDS011;39139;53.144;6.244;2023-08-12T13:08:35;7.18;;;3.55;;
51732;SDS011;39139;53.144;6.244;2023-08-12T13:11:01;10.77;;;3.90;;
51732;SDS011;39139;53.144;6.244;2023-08-12T13:13:26;7.82;;;3.35;;
51732;SDS011;39139;53.144;6.244;2023-08-12T13:15:52;13.05;;;3.97;;
51732;SDS011;39139;53.144;6.244;2023-08-12T13:18:18;9.60;;;3.58;;
51732;SDS011;39139;53.144;6.244;2023-08-12T13:20:44;12.95;;;3.53;;
51732;SDS011;39139;53.144;6.244;2023-08-12T13:23:09;12.55;;;3.65;;
51732;SDS011;39139;53.144;6.244;2023-08-12T13:25:35;11.00;;;3.25;;
51732;SDS011;39139;53.144;6.244;2023-08-12T13:28:01;12.32;;;3.10;;
51732;SDS011;39139;53.144;6.244;2023-08-12T13:30:27;8.05;;;2.97;;
51732;SDS011;39139;53.144;6.244;2023-08-12T13:32:53;10.57;;;3.00;;
51732;SDS011;39139;53.144;6.244;2023-08-12T13:35:19;9.27;;;3.35;;
51732;SDS011;39139;53.144;6.244;2023-08-12T13:37:45;6.78;;;2.65;;
51732;SDS011;39139;53.144;6.244;2023-08-12T13:40:11;9.55;;;2.08;;
51732;SDS011;39139;53.144;6.244;2023-08-12T13:42:37;15.02;;;2.45;;
51732;SDS011;39139;53.144;6.244;2023-08-12T13:45:04;8.82;;;2.67;;
51732;SDS011;39139;53.144;6.244;2023-08-12T13:47:30;9.95;;;3.17;;
51732;SDS011;39139;53.144;6.244;2023-08-12T13:49:55;8.82;;;2.55;;
51732;SDS011;39139;53.144;6.244;2023-08-12T13:52:21;5.15;;;1.90;;
51732;SDS011;39139;53.144;6.244;2023-08-12T13:54:47;10.52;;;2.40;;
51732;SDS011;39139;53.144;6.244;2023-08-12T13:57:13;8.57;;;1.98;;
51732;SDS011;39139;53.144;6.244;2023-08-12T13:59:38;5.50;;;2.15;;
51732;SDS011;39139;53.144;6.244;2023-08-12T14:02:05;7.90;;;2.20;;
51732;SDS011;39139;53.144;6.244;2023-08-12T14:04:31;13.38;;;2.33;;
51732;SDS011;39139;53.144;6.244;2023-08-12T14:06:57;6.05;;;1.67;;
51732;SDS011;39139;53.144;6.244;2023-08-12T14:09:23;7.20;;;1.52;;
51732;SDS011;39139;53.144;6.244;2023-08-12T14:11:48;9.35;;;2.33;;
51732;SDS011;39139;53.144;6.244;2023-08-12T14:14:14;8.40;;;1.85;;
51732;SDS011;39139;53.144;6.244;2023-08-12T14:16:40;9.48;;;2.03;;
51732;SDS011;39139;53.144;6.244;2023-08-12T14:19:06;6.55;;;2.40;;
51732;SDS011;39139;53.144;6.244;2023-08-12T14:21:32;9.20;;;2.45;;
51732;SDS011;39139;53.144;6.244;2023-08-12T14:23:57;7.60;;;1.85;;
51732;SDS011;39139;53.144;6.244;2023-08-12T14:26:23;7.05;;;1.38;;
51732;SDS011;39139;53.144;6.244;2023-08-12T14:28:48;12.18;;;2.08;;
51732;SDS011;39139;53.144;6.244;2023-08-12T14:31:14;5.32;;;1.98;;
51732;SDS011;39139;53.144;6.244;2023-08-12T14:33:40;5.55;;;1.85;;
51732;SDS011;39139;53.144;6.244;2023-08-12T14:36:05;7.18;;;2.20;;
51732;SDS011;39139;53.144;6.244;2023-08-12T14:38:31;5.20;;;2.00;;
51732;SDS011;39139;53.144;6.244;2023-08-12T14:40:58;8.63;;;2.25;;